createdAt,value
2019-03-19T00:01:33.962Z,71.05
2019-03-19T00:05:38.920Z,71.27
2019-03-19T00:09:43.803Z,71.60
2019-03-19T00:13:48.693Z,71.81
2019-03-19T00:17:53.591Z,71.73
2019-03-19T00:21:58.480Z,71.42
2019-03-19T00:26:03.430Z,71.37
2019-03-19T00:30:11.283Z,71.14
2019-03-19T00:34:16.171Z,70.45
2019-03-19T00:38:21.059Z,70.71
2019-03-19T00:42:25.940Z,70.63
2019-03-19T00:46:30.831Z,70.47
2019-03-19T00:50:35.718Z,70.69
2019-03-19T00:54:40.613Z,70.60
2019-03-19T00:58:45.503Z,70.55
2019-03-19T01:02:50.378Z,70.72
2019-03-19T01:06:55.268Z,70.89
2019-03-19T01:11:00.166Z,71.08
2019-03-19T01:15:08.110Z,71.95
2019-03-19T01:19:13.012Z,72.62
2019-03-19T01:23:17.897Z,73.16
2019-03-19T01:27:22.791Z,72.99
2019-03-19T01:31:27.686Z,72.98
2019-03-19T01:35:32.578Z,72.94
2019-03-19T01:39:37.473Z,72.36
2019-03-19T01:43:42.371Z,71.63
2019-03-19T01:47:47.267Z,71.94
2019-03-19T01:51:52.157Z,72.31
2019-03-19T01:56:04.853Z,72.01
2019-03-19T02:00:05.467Z,71.81
2019-03-19T02:04:10.357Z,71.21
2019-03-19T02:08:15.260Z,70.87
2019-03-19T02:12:20.158Z,71.57
2019-03-19T02:16:25.059Z,71.93
2019-03-19T02:20:29.957Z,72.21
2019-03-19T02:24:34.905Z,72.70
2019-03-19T02:28:39.744Z,73.13
2019-03-19T02:32:44.639Z,73.05
2019-03-19T02:36:49.542Z,72.53
2019-03-19T02:40:54.429Z,72.21
2019-03-19T02:44:59.317Z,72.60
2019-03-19T02:49:04.282Z,71.48
2019-03-19T02:53:09.173Z,72.36
2019-03-19T02:57:14.065Z,72.46
2019-03-19T03:01:18.957Z,72.64
2019-03-19T03:05:23.931Z,73.04
2019-03-19T03:09:28.811Z,72.51
2019-03-19T03:13:33.716Z,72.04
2019-03-19T03:17:38.609Z,72.10
2019-03-19T03:21:43.493Z,72.16
2019-03-19T03:25:48.384Z,72.50
2019-03-19T03:29:53.277Z,72.03
2019-03-19T03:33:58.169Z,71.84
2019-03-19T03:38:03.060Z,72.36
2019-03-19T03:42:08.310Z,72.53
2019-03-19T03:46:13.200Z,72.33
2019-03-19T03:50:18.551Z,72.44
2019-03-19T03:54:23.431Z,72.63
2019-03-19T03:58:28.322Z,72.58
2019-03-19T04:02:34.277Z,72.37
2019-03-19T04:06:39.175Z,71.98
2019-03-19T04:10:44.070Z,72.15
2019-03-19T04:14:48.958Z,72.45
2019-03-19T04:18:53.852Z,73.11
2019-03-19T04:22:58.747Z,73.26
2019-03-19T04:27:15.422Z,72.84
2019-03-19T04:31:10.237Z,72.91
2019-03-19T04:35:15.136Z,73.43
2019-03-19T04:39:20.036Z,73.25
2019-03-19T04:43:24.925Z,73.11
2019-03-19T04:47:29.830Z,72.93
2019-03-19T04:51:34.729Z,72.67
2019-03-19T04:55:39.630Z,72.84
2019-03-19T04:59:44.520Z,72.54
2019-03-19T05:03:49.411Z,72.11
2019-03-19T05:07:54.310Z,71.94
2019-03-19T05:11:59.206Z,72.35
2019-03-19T05:16:04.107Z,73.09
2019-03-19T05:20:17.189Z,73.44
2019-03-19T05:24:22.084Z,73.70
2019-03-19T05:28:26.983Z,73.44
2019-03-19T05:32:31.878Z,73.19
2019-03-19T05:36:36.779Z,72.68
2019-03-19T05:40:41.677Z,73.21
2019-03-19T05:44:46.566Z,73.27
2019-03-19T05:48:51.475Z,73.07
2019-03-19T05:52:56.377Z,73.54
2019-03-19T05:57:01.284Z,73.60
2019-03-19T06:01:06.182Z,73.13
2019-03-19T06:05:12.607Z,73.41
2019-03-19T06:09:17.497Z,73.32
2019-03-19T06:13:22.392Z,73.23
2019-03-19T06:17:27.283Z,73.47
2019-03-19T06:21:32.176Z,72.84
2019-03-19T06:25:37.070Z,72.50
2019-03-19T06:29:41.961Z,72.86
2019-03-19T06:33:48.184Z,73.25
2019-03-19T06:37:53.227Z,72.09
2019-03-19T06:41:58.131Z,72.58
2019-03-19T06:46:03.021Z,72.28
2019-03-19T06:50:10.766Z,72.36
2019-03-19T06:54:15.666Z,72.31
2019-03-19T06:58:20.563Z,72.15
2019-03-19T07:02:25.464Z,71.96
2019-03-19T07:06:30.352Z,72.46
2019-03-19T07:10:35.256Z,74.33
2019-03-19T07:14:40.152Z,73.47
2019-03-19T07:18:45.055Z,73.53
2019-03-19T07:22:49.950Z,72.87
2019-03-19T07:26:54.834Z,73.09
2019-03-19T07:30:59.726Z,73.39
2019-03-19T07:35:05.065Z,73.51
2019-03-19T07:39:09.965Z,74.00
2019-03-19T07:43:14.869Z,73.83
2019-03-19T07:47:19.760Z,75.14
2019-03-19T07:51:24.666Z,74.36
2019-03-19T07:55:29.559Z,74.29
2019-03-19T07:59:34.460Z,74.02
2019-03-19T08:03:39.355Z,73.47
2019-03-19T08:07:44.251Z,72.88
2019-03-19T08:11:49.135Z,71.77
2019-03-19T08:15:54.792Z,71.05
2019-03-19T08:19:59.694Z,69.98
2019-03-19T08:24:04.590Z,68.42
2019-03-19T08:28:09.481Z,65.04
2019-03-19T08:32:14.374Z,63.87
2019-03-19T08:36:19.273Z,62.48
2019-03-19T08:40:24.175Z,61.07
2019-03-19T08:44:29.070Z,61.95
2019-03-19T08:48:33.955Z,60.62
2019-03-19T08:52:39.684Z,58.21
2019-03-19T08:56:44.585Z,56.90
2019-03-19T09:00:49.476Z,56.68
2019-03-19T09:04:54.376Z,56.12
2019-03-19T09:08:59.267Z,52.83
2019-03-19T09:13:04.165Z,53.01
2019-03-19T09:17:09.055Z,49.83
2019-03-19T09:21:13.955Z,50.39
2019-03-19T09:25:18.920Z,50.98
2019-03-19T09:29:25.468Z,50.02
2019-03-19T09:33:30.483Z,49.69
2019-03-19T09:37:35.377Z,50.27
2019-03-19T09:41:41.683Z,48.83
2019-03-19T09:45:46.631Z,47.07
2019-03-19T09:49:51.527Z,47.28
2019-03-19T09:53:56.437Z,49.04
2019-03-19T09:58:01.328Z,48.22
2019-03-19T10:02:06.390Z,46.67
2019-03-19T10:06:14.313Z,44.43
2019-03-19T10:10:20.936Z,44.26
2019-03-19T10:14:25.852Z,44.85
2019-03-19T10:18:30.788Z,45.45
2019-03-19T10:22:35.678Z,42.36
2019-03-19T10:26:40.567Z,43.29
2019-03-19T10:30:45.445Z,43.41
2019-03-19T10:34:50.340Z,43.79
2019-03-19T10:38:55.232Z,44.07
2019-03-19T10:43:00.147Z,43.25
2019-03-19T10:47:05.052Z,43.33
2019-03-19T10:51:09.937Z,41.13
2019-03-19T10:55:14.897Z,41.47
2019-03-19T10:59:19.792Z,41.35
2019-03-19T11:03:24.691Z,41.77
2019-03-19T11:07:29.575Z,40.63
2019-03-19T11:11:34.462Z,41.52
2019-03-19T11:15:39.418Z,41.82
2019-03-19T11:19:44.306Z,41.03
2019-03-19T11:23:49.200Z,41.40
2019-03-19T11:27:54.090Z,42.47
2019-03-19T11:31:58.979Z,43.00
2019-03-19T11:36:03.904Z,43.19
2019-03-19T11:40:12.136Z,43.28
2019-03-19T11:44:18.097Z,42.01
2019-03-19T11:48:22.997Z,40.67
2019-03-19T11:52:27.879Z,41.81
2019-03-19T11:56:32.765Z,40.46
2019-03-19T12:00:48.458Z,38.65
2019-03-19T12:04:53.350Z,40.23
2019-03-19T12:08:58.243Z,40.65
2019-03-19T12:13:03.131Z,40.82
2019-03-19T12:17:08.029Z,40.88
2019-03-19T12:21:12.933Z,39.89
2019-03-19T12:25:17.844Z,39.81
2019-03-19T12:29:22.744Z,39.09
2019-03-19T12:33:28.593Z,38.67
2019-03-19T12:37:33.493Z,38.02
2019-03-19T12:41:38.411Z,37.17
2019-03-19T12:45:43.297Z,36.72
2019-03-19T12:49:48.203Z,35.62
2019-03-19T12:53:53.089Z,36.07
2019-03-19T12:57:58.000Z,36.91
2019-03-19T13:02:02.910Z,37.62
2019-03-19T13:06:07.870Z,38.94
2019-03-19T13:10:23.820Z,39.96
2019-03-19T13:14:28.696Z,40.68
2019-03-19T13:18:33.606Z,39.88
2019-03-19T13:22:38.503Z,39.84
2019-03-19T13:26:43.409Z,39.55
2019-03-19T13:30:48.310Z,39.45
2019-03-19T13:34:53.200Z,38.86
2019-03-19T13:38:58.125Z,38.98
2019-03-19T13:43:03.024Z,37.86
2019-03-19T13:47:07.917Z,38.24
2019-03-19T13:51:12.818Z,37.66
2019-03-19T13:55:20.763Z,38.87
2019-03-19T13:59:25.666Z,39.55
2019-03-19T14:03:30.567Z,39.23
2019-03-19T14:07:35.467Z,38.88
2019-03-19T14:11:40.377Z,38.79
2019-03-19T14:15:45.261Z,38.99
2019-03-19T14:19:51.308Z,39.03
2019-03-19T14:23:56.329Z,38.89
2019-03-19T14:28:01.230Z,38.34
2019-03-19T14:32:06.208Z,36.89
2019-03-19T14:36:11.110Z,36.36
2019-03-19T14:40:26.408Z,36.33
2019-03-19T14:44:31.297Z,36.81
2019-03-19T14:48:36.196Z,35.87
2019-03-19T14:52:43.713Z,35.84
2019-03-19T14:56:48.663Z,36.56
2019-03-19T15:00:53.561Z,36.53
2019-03-19T15:04:58.465Z,36.95
2019-03-19T15:09:04.103Z,36.76
2019-03-19T15:13:09.273Z,36.97
2019-03-19T15:17:14.160Z,37.36
2019-03-19T15:21:19.063Z,36.54
2019-03-19T15:25:23.960Z,36.84
2019-03-19T15:29:28.870Z,37.18
2019-03-19T15:33:33.774Z,36.85
2019-03-19T15:37:39.745Z,37.26
2019-03-19T15:41:44.640Z,37.46
2019-03-19T15:45:49.546Z,37.25
2019-03-19T15:49:54.446Z,37.48
2019-03-19T15:53:59.348Z,37.64
2019-03-19T15:58:04.259Z,37.83
2019-03-19T16:02:09.150Z,37.98
2019-03-19T16:06:14.048Z,38.14
2019-03-19T16:10:19.222Z,37.92
2019-03-19T16:14:24.117Z,38.02
2019-03-19T16:18:29.005Z,37.99
2019-03-19T16:22:33.904Z,38.41
2019-03-19T16:26:38.804Z,38.37
2019-03-19T16:30:43.709Z,38.83
2019-03-19T16:34:48.615Z,38.92
2019-03-19T16:38:53.495Z,39.24
2019-03-19T16:42:58.389Z,39.54
2019-03-19T16:47:03.276Z,39.90
2019-03-19T16:51:08.175Z,40.04
2019-03-19T16:55:14.800Z,40.15
2019-03-19T16:59:19.689Z,40.26
2019-03-19T17:03:24.579Z,40.15
2019-03-19T17:07:29.480Z,40.29
2019-03-19T17:11:34.447Z,40.36
2019-03-19T17:15:39.403Z,41.15
2019-03-19T17:19:44.287Z,41.04
2019-03-19T17:23:49.185Z,41.29
2019-03-19T17:27:54.086Z,41.72
2019-03-19T17:31:58.962Z,42.30
2019-03-19T17:36:03.861Z,42.27
2019-03-19T17:40:11.282Z,42.52
2019-03-19T17:44:16.175Z,42.83
2019-03-19T17:48:21.077Z,43.27
2019-03-19T17:52:25.972Z,44.72
2019-03-19T17:56:30.862Z,45.74
2019-03-19T18:00:46.130Z,46.40
2019-03-19T18:04:51.022Z,48.25
2019-03-19T18:08:55.927Z,48.37
2019-03-19T18:13:01.777Z,48.95
2019-03-19T18:17:06.668Z,49.39
2019-03-19T18:21:11.547Z,49.37
2019-03-19T18:25:18.415Z,49.34
2019-03-19T18:29:23.321Z,49.66
2019-03-19T18:33:28.206Z,49.85
2019-03-19T18:37:33.104Z,50.30
2019-03-19T18:41:37.986Z,50.72
2019-03-19T18:45:42.880Z,51.44
2019-03-19T18:49:47.768Z,51.79
2019-03-19T18:53:52.672Z,52.31
2019-03-19T18:57:57.570Z,52.69
2019-03-19T19:02:02.467Z,53.11
2019-03-19T19:06:08.334Z,53.17
2019-03-19T19:10:14.485Z,53.83
2019-03-19T19:14:19.370Z,53.86
2019-03-19T19:18:24.265Z,56.81
2019-03-19T19:22:29.152Z,55.38
2019-03-19T19:26:34.043Z,54.94
2019-03-19T19:30:38.938Z,55.08
2019-03-19T19:34:43.840Z,54.99
2019-03-19T19:38:48.728Z,55.58
2019-03-19T19:42:53.620Z,55.69
2019-03-19T19:46:58.528Z,55.92
2019-03-19T19:51:03.427Z,56.02
2019-03-19T19:55:10.157Z,56.19
2019-03-19T19:59:15.063Z,56.44
2019-03-19T20:03:20.038Z,56.79
2019-03-19T20:07:24.924Z,56.80
2019-03-19T20:11:29.826Z,57.22
2019-03-19T20:15:34.726Z,57.17
2019-03-19T20:19:39.620Z,57.93
2019-03-19T20:23:44.508Z,58.46
2019-03-19T20:27:49.406Z,58.31
2019-03-19T20:31:54.314Z,58.56
2019-03-19T20:35:59.204Z,58.82
2019-03-19T20:40:06.553Z,59.14
2019-03-19T20:44:11.435Z,59.34
2019-03-19T20:48:16.340Z,60.02
2019-03-19T20:52:21.237Z,59.55
2019-03-19T20:56:26.137Z,59.84
2019-03-19T21:00:31.113Z,60.51
2019-03-19T21:04:36.000Z,61.12
2019-03-19T21:08:40.895Z,61.48
2019-03-19T21:12:45.792Z,61.23
2019-03-19T21:16:50.692Z,61.40
2019-03-19T21:20:55.593Z,60.90
2019-03-19T21:25:00.475Z,61.33
2019-03-19T21:29:05.515Z,62.32
2019-03-19T21:33:10.414Z,62.38
2019-03-19T21:37:15.381Z,62.21
2019-03-19T21:41:20.256Z,62.58
2019-03-19T21:45:25.143Z,62.56
2019-03-19T21:49:30.088Z,62.14
2019-03-19T21:53:34.975Z,61.85
2019-03-19T21:57:39.873Z,61.77
2019-03-19T22:01:44.781Z,61.98
2019-03-19T22:05:49.735Z,62.04
2019-03-19T22:09:54.637Z,61.74
2019-03-19T22:13:59.529Z,61.87
2019-03-19T22:18:04.504Z,62.11
2019-03-19T22:22:09.385Z,62.89
2019-03-19T22:26:14.282Z,63.70
2019-03-19T22:30:20.222Z,63.67
2019-03-19T22:34:25.112Z,63.48
2019-03-19T22:38:30.014Z,64.00
2019-03-19T22:42:34.901Z,64.18
2019-03-19T22:46:39.798Z,64.90
2019-03-19T22:50:44.692Z,64.46
2019-03-19T22:54:49.589Z,64.53
2019-03-19T22:58:54.487Z,64.29
2019-03-19T23:02:59.363Z,64.83
2019-03-19T23:07:04.526Z,65.21
2019-03-19T23:11:09.419Z,64.87
2019-03-19T23:15:14.466Z,64.58
2019-03-19T23:19:19.356Z,64.59
2019-03-19T23:23:24.246Z,64.60
2019-03-19T23:27:29.143Z,64.75
2019-03-19T23:31:34.037Z,64.73
2019-03-19T23:35:38.937Z,63.77
2019-03-19T23:39:43.829Z,64.13
2019-03-19T23:43:48.725Z,64.86
2019-03-19T23:47:53.609Z,65.30
2019-03-19T23:51:58.503Z,65.11
2019-03-19T23:56:03.398Z,64.87
